createdAt,value
2022-12-27T00:00:58.329Z,96964.75
2022-12-27T00:03:26.677Z,96964.97
2022-12-27T00:05:54.959Z,96951.16
2022-12-27T00:08:23.400Z,96968.84
2022-12-27T00:10:53.156Z,96967.34
2022-12-27T00:13:21.567Z,96963.13
2022-12-27T00:15:49.783Z,96957.09
2022-12-27T00:18:17.953Z,96970.78
2022-12-27T00:20:46.156Z,96955.22
2022-12-27T00:23:14.450Z,96967.50
2022-12-27T00:25:42.876Z,96975.72
2022-12-27T00:28:12.635Z,96967.03
2022-12-27T00:30:40.905Z,96970.34
2022-12-27T00:33:09.223Z,96943.34
2022-12-27T00:35:40.455Z,96959.25
2022-12-27T00:38:08.991Z,96952.91
2022-12-27T00:40:40.731Z,96927.59
2022-12-27T00:43:09.184Z,96958.78
2022-12-27T00:45:39.083Z,96936.88
2022-12-27T00:48:07.904Z,96960.34
2022-12-27T00:50:36.379Z,96959.25
2022-12-27T00:53:04.797Z,96944.03
2022-12-27T00:55:33.148Z,96945.63
2022-12-27T00:58:01.549Z,96949.69
2022-12-27T01:00:29.798Z,96948.81
2022-12-27T01:02:59.509Z,96944.88
2022-12-27T01:05:27.939Z,96946.91
2022-12-27T01:07:56.738Z,96952.41
2022-12-27T01:10:24.984Z,96963.13
2022-12-27T01:12:53.335Z,96954.66
2022-12-27T01:15:21.727Z,96954.84
2022-12-27T01:17:49.994Z,96951.09
2022-12-27T01:20:19.811Z,96956.09
2022-12-27T01:22:48.265Z,96957.50
2022-12-27T01:25:16.809Z,96977.94
2022-12-27T01:27:45.028Z,96977.56
2022-12-27T01:30:14.228Z,96961.91
2022-12-27T01:32:42.536Z,96977.69
2022-12-27T01:35:10.927Z,96972.44
2022-12-27T01:37:40.726Z,96979.34
2022-12-27T01:40:10.775Z,96987.19
2022-12-27T01:42:53.144Z,96984.63
2022-12-27T01:45:22.534Z,96989.06
2022-12-27T01:47:56.128Z,96983.28
2022-12-27T01:50:30.500Z,96995.63
2022-12-27T01:53:08.331Z,96987.59
2022-12-27T01:55:43.501Z,96986.03
2022-12-27T01:58:15.985Z,96974.16
2022-12-27T02:00:47.361Z,97000.31
2022-12-27T02:03:20.479Z,96997.13
2022-12-27T02:05:49.381Z,96995.41
2022-12-27T02:08:28.739Z,96994.94
2022-12-27T02:10:57.847Z,96989.34
2022-12-27T02:13:26.124Z,96994.09
2022-12-27T02:15:54.436Z,96999.97
2022-12-27T02:18:22.680Z,96993.16
2022-12-27T02:21:12.895Z,96971.03
2022-12-27T02:24:04.326Z,96984.69
2022-12-27T02:26:46.400Z,96974.50
2022-12-27T02:33:15.364Z,96986.22
2022-12-27T02:36:03.837Z,96976.00
2022-12-27T02:38:34.824Z,96989.09
2022-12-27T02:44:02.110Z,97001.47
2022-12-27T02:47:01.994Z,97008.94
2022-12-27T02:49:55.364Z,97004.84
2022-12-27T02:52:58.068Z,96999.06
2022-12-27T02:59:25.898Z,96982.22
2022-12-27T03:02:36.542Z,97010.44
2022-12-27T03:09:01.147Z,97008.56
2022-12-27T03:19:07.717Z,96994.28
2022-12-27T03:25:37.640Z,97005.09
2022-12-27T03:34:55.177Z,97039.28
2022-12-27T05:14:58.038Z,97069.13
2022-12-27T05:17:27.803Z,97079.56
2022-12-27T05:19:56.304Z,97064.59
2022-12-27T05:22:42.020Z,97072.31
2022-12-27T05:25:32.164Z,97062.22
2022-12-27T05:28:00.413Z,97075.72
2022-12-27T05:30:28.794Z,97093.22
2022-12-27T05:32:58.852Z,97080.94
2022-12-27T05:35:27.242Z,97079.91
2022-12-27T05:37:56.108Z,97076.63
2022-12-27T05:40:24.781Z,97106.66
2022-12-27T05:42:53.521Z,97082.38
2022-12-27T05:45:22.072Z,97095.41
2022-12-27T05:47:50.214Z,97090.84
2022-12-27T05:50:19.967Z,97077.34
2022-12-27T05:52:48.290Z,97078.34
2022-12-27T05:55:16.629Z,97093.69
2022-12-27T05:57:45.020Z,97078.50
2022-12-27T06:12:24.642Z,97098.03
2022-12-27T06:23:00.360Z,97090.63
2022-12-27T06:25:28.841Z,97093.56
2022-12-27T06:27:58.411Z,97088.59
2022-12-27T06:30:29.277Z,97097.69
2022-12-27T06:32:59.721Z,97106.09
2022-12-27T06:35:27.863Z,97108.13
2022-12-27T06:37:56.119Z,97122.19
2022-12-27T06:40:24.248Z,97124.09
2022-12-27T06:42:52.445Z,97113.13
2022-12-27T06:45:21.978Z,97109.56
2022-12-27T06:47:50.092Z,97110.59
2022-12-27T06:54:44.658Z,97102.16
2022-12-27T07:01:08.896Z,97111.09
2022-12-27T07:03:37.941Z,97122.97
2022-12-27T07:06:07.134Z,97123.31
2022-12-27T07:08:36.798Z,97119.16
2022-12-27T07:11:07.554Z,97104.75
2022-12-27T07:13:36.065Z,97105.19
2022-12-27T07:16:07.188Z,97113.84
2022-12-27T07:18:35.918Z,97116.69
2022-12-27T07:21:06.455Z,97113.25
2022-12-27T07:23:34.751Z,97111.75
2022-12-27T07:26:04.769Z,97110.06
2022-12-27T07:28:33.050Z,97115.63
2022-12-27T07:31:01.208Z,97132.78
2022-12-27T07:33:30.819Z,97131.72
2022-12-27T07:36:00.476Z,97145.34
2022-12-27T07:38:29.051Z,97147.81
2022-12-27T07:41:00.171Z,97138.28
2022-12-27T07:43:31.104Z,97146.81
2022-12-27T07:46:04.849Z,97153.75
2022-12-27T07:48:34.691Z,97152.47
2022-12-27T07:51:03.364Z,97144.72
2022-12-27T07:53:32.035Z,97143.94
2022-12-27T07:56:00.365Z,97164.19
2022-12-27T07:58:28.478Z,97136.25
2022-12-27T08:00:56.769Z,97136.38
2022-12-27T08:03:25.109Z,97149.72
2022-12-27T08:05:54.624Z,97157.53
2022-12-27T08:08:24.957Z,97162.22
2022-12-27T08:10:53.089Z,97161.34
2022-12-27T08:13:21.195Z,97164.66
2022-12-27T08:15:49.351Z,97167.59
2022-12-27T08:18:17.465Z,97163.28
2022-12-27T08:20:45.620Z,97167.38
2022-12-27T08:23:15.043Z,97160.09
2022-12-27T08:25:48.618Z,97153.16
2022-12-27T08:28:19.489Z,97154.63
2022-12-27T08:30:48.223Z,97154.19
2022-12-27T08:33:16.517Z,97156.94
2022-12-27T08:35:54.568Z,97158.06
2022-12-27T08:38:24.566Z,97158.28
2022-12-27T08:40:52.888Z,97162.19
2022-12-27T08:43:20.931Z,97168.66
2022-12-27T08:45:49.117Z,97164.03
2022-12-27T08:48:18.497Z,97171.84
2022-12-27T08:50:46.593Z,97165.16
2022-12-27T08:53:14.693Z,97169.88
2022-12-27T08:55:44.154Z,97170.09
2022-12-27T08:58:16.337Z,97177.97
2022-12-27T09:00:44.877Z,97172.91
2022-12-27T09:03:12.979Z,97173.34
2022-12-27T09:05:42.204Z,97177.53
2022-12-27T09:08:10.966Z,97183.28
2022-12-27T09:10:39.173Z,97178.41
2022-12-27T09:13:08.782Z,97194.25
2022-12-27T09:15:38.362Z,97191.53
2022-12-27T09:18:08.189Z,97193.44
2022-12-27T09:20:36.393Z,97198.63
2022-12-27T09:23:04.568Z,97202.16
2022-12-27T09:25:32.753Z,97202.44
2022-12-27T09:28:00.874Z,97202.44
2022-12-27T09:30:30.493Z,97206.78
2022-12-27T09:32:59.386Z,97203.47
2022-12-27T09:35:27.453Z,97193.75
2022-12-27T09:37:55.784Z,97205.03
2022-12-27T09:40:23.975Z,97199.81
2022-12-27T09:43:12.593Z,97213.78
2022-12-27T09:45:52.804Z,97207.78
2022-12-27T09:48:33.580Z,97201.41
2022-12-27T09:51:06.788Z,97199.91
2022-12-27T09:53:44.540Z,97188.66
2022-12-27T09:56:14.437Z,97183.91
2022-12-27T09:58:48.346Z,97180.34
2022-12-27T10:01:25.168Z,97190.44
2022-12-27T10:03:54.145Z,97196.81
2022-12-27T10:06:50.057Z,97191.28
2022-12-27T10:09:52.621Z,97178.94
2022-12-27T10:12:42.719Z,97174.97
2022-12-27T10:15:23.609Z,97176.34
2022-12-27T10:18:00.376Z,97170.31
2022-12-27T10:20:41.450Z,97170.53
2022-12-27T10:23:13.944Z,97171.25
2022-12-27T10:25:46.328Z,97168.16
2022-12-27T10:28:18.221Z,97166.25
2022-12-27T10:30:46.603Z,97164.13
2022-12-27T10:33:22.140Z,97156.19
2022-12-27T10:35:50.553Z,97152.69
2022-12-27T10:38:20.573Z,97152.69
2022-12-27T10:40:55.642Z,97148.47
2022-12-27T10:43:27.748Z,97140.66
2022-12-27T10:45:56.162Z,97147.03
2022-12-27T10:48:32.220Z,97136.91
2022-12-27T10:51:15.604Z,97128.41
2022-12-27T10:53:59.333Z,97120.69
2022-12-27T10:56:29.483Z,97118.19
2022-12-27T10:59:08.877Z,97120.13
2022-12-27T11:01:37.279Z,97117.84
2022-12-27T11:04:20.227Z,97117.97
2022-12-27T11:06:51.903Z,97113.53
2022-12-27T11:09:32.043Z,97106.28
2022-12-27T11:12:21.508Z,97112.63
2022-12-27T11:14:57.565Z,97096.50
2022-12-27T11:17:28.835Z,97101.28
2022-12-27T11:19:59.976Z,97098.19
2022-12-27T11:22:28.315Z,97096.38
2022-12-27T11:25:00.867Z,97088.31
2022-12-27T11:27:30.116Z,97083.88
2022-12-27T11:30:00.399Z,97082.38
2022-12-27T11:32:28.633Z,97082.56
2022-12-27T11:34:58.777Z,97087.66
2022-12-27T11:37:28.337Z,97074.97
2022-12-27T11:40:15.410Z,97074.34
2022-12-27T11:42:46.697Z,97069.44
2022-12-27T11:45:23.114Z,97065.47
2022-12-27T11:47:55.805Z,97063.59
2022-12-27T11:50:42.160Z,97061.06
2022-12-27T11:53:40.129Z,97056.94
2022-12-27T11:56:20.799Z,97049.16
2022-12-27T11:59:22.808Z,97042.97
2022-12-27T12:02:18.213Z,97044.06
2022-12-27T12:05:23.559Z,97040.97
2022-12-27T12:08:23.351Z,97033.91
2022-12-27T12:11:03.220Z,97033.97
2022-12-27T12:14:07.775Z,97022.78
2022-12-27T12:17:05.497Z,97023.41
2022-12-27T12:19:54.744Z,97026.63
2022-12-27T12:22:38.169Z,97033.00
2022-12-27T12:25:34.135Z,97034.66
2022-12-27T12:28:57.130Z,97029.47
2022-12-27T12:31:33.167Z,97031.13
2022-12-27T12:34:14.928Z,97034.31
2022-12-27T12:36:56.043Z,97031.69
2022-12-27T12:39:35.870Z,97030.88
2022-12-27T12:42:20.030Z,97027.72
2022-12-27T12:45:08.024Z,97029.00
2022-12-27T12:48:01.769Z,97017.72
2022-12-27T12:50:40.175Z,97022.78
2022-12-27T12:53:27.198Z,97020.22
2022-12-27T12:56:06.923Z,97027.34
2022-12-27T12:58:49.018Z,97013.50
2022-12-27T13:01:31.201Z,97004.13
2022-12-27T13:04:52.829Z,97008.03
2022-12-27T13:07:48.807Z,97013.81
2022-12-27T13:10:45.436Z,97011.81
2022-12-27T13:13:22.746Z,97018.97
2022-12-27T13:16:11.453Z,97021.34
2022-12-27T13:18:49.491Z,97013.22
2022-12-27T13:21:30.259Z,97019.50
2022-12-27T13:24:07.681Z,97000.91
2022-12-27T13:26:44.702Z,97004.84
2022-12-27T13:29:34.134Z,97010.09
2022-12-27T13:32:14.180Z,97003.28
2022-12-27T13:34:51.205Z,97009.38
2022-12-27T13:37:33.892Z,97010.69
2022-12-27T13:40:24.115Z,97000.22
2022-12-27T13:43:14.338Z,97003.91
2022-12-27T13:46:00.735Z,97001.59
2022-12-27T13:48:53.421Z,97000.31
2022-12-27T13:51:42.787Z,96996.66
2022-12-27T13:54:48.100Z,97005.00
2022-12-27T13:57:32.114Z,97001.84
2022-12-27T14:00:18.646Z,97015.75
2022-12-27T14:03:26.499Z,97015.25
2022-12-27T14:06:29.825Z,97016.25
2022-12-27T14:09:32.603Z,97012.28
2022-12-27T14:12:28.678Z,97009.41
2022-12-27T14:15:02.184Z,97010.75
2022-12-27T14:17:37.985Z,97011.84
2022-12-27T14:20:23.237Z,97019.22
2022-12-27T14:23:20.146Z,97019.75
2022-12-27T14:26:24.468Z,97010.59
2022-12-27T14:29:34.291Z,97015.09
2022-12-27T14:32:41.380Z,97021.91
2022-12-27T14:35:46.885Z,97017.69
2022-12-27T14:39:01.815Z,97016.34
2022-12-27T14:41:55.929Z,97010.25
2022-12-27T14:45:12.967Z,97012.88
2022-12-27T14:48:04.140Z,97014.72
2022-12-27T14:54:45.565Z,97022.78
2022-12-27T14:57:27.381Z,97019.59
2022-12-27T15:00:04.379Z,97018.56
2022-12-27T15:02:53.099Z,97026.44
2022-12-27T15:05:49.044Z,97025.94
2022-12-27T15:08:35.645Z,97025.94
2022-12-27T15:11:27.423Z,97029.38
2022-12-27T15:14:11.674Z,97036.94
2022-12-27T15:16:47.436Z,97034.31
2022-12-27T15:19:30.779Z,97033.75
2022-12-27T15:22:08.849Z,97035.06
2022-12-27T15:24:47.438Z,97032.66
2022-12-27T15:27:25.034Z,97035.53
2022-12-27T15:30:18.086Z,97025.28
2022-12-27T15:32:56.161Z,97027.91
2022-12-27T15:35:41.109Z,97027.38
2022-12-27T15:38:13.122Z,97017.63
2022-12-27T15:41:11.667Z,97020.47
2022-12-27T15:43:58.040Z,97021.97
2022-12-27T15:46:47.779Z,97032.47
2022-12-27T15:49:33.515Z,97038.75
2022-12-27T15:52:09.013Z,97034.47
2022-12-27T15:54:55.610Z,97030.22
2022-12-27T15:57:44.001Z,97023.38
2022-12-27T16:00:18.215Z,97026.25
2022-12-27T16:02:53.646Z,97037.00
2022-12-27T16:05:45.135Z,97040.66
2022-12-27T16:08:35.327Z,97046.13
2022-12-27T16:11:06.139Z,97038.50
2022-12-27T16:13:42.464Z,97037.41
2022-12-27T16:16:57.672Z,97038.56
2022-12-27T16:20:04.458Z,97044.50
2022-12-27T16:22:37.177Z,97041.50
2022-12-27T16:25:28.605Z,97035.94
2022-12-27T16:28:06.320Z,97039.28
2022-12-27T16:30:43.928Z,97040.06
2022-12-27T16:33:35.477Z,97039.53
2022-12-27T16:36:16.228Z,97037.38
2022-12-27T16:38:51.951Z,97033.66
2022-12-27T16:41:37.274Z,97043.91
2022-12-27T16:44:15.504Z,97048.09
2022-12-27T16:46:53.246Z,97053.56
2022-12-27T16:49:56.743Z,97048.19
2022-12-27T16:52:51.704Z,97050.97
2022-12-27T16:55:41.265Z,97053.75
2022-12-27T16:58:24.589Z,97049.00
2022-12-27T17:00:54.146Z,97055.97
2022-12-27T17:03:50.733Z,97061.84
2022-12-27T17:06:55.249Z,97064.38
2022-12-27T17:09:44.205Z,97065.88
2022-12-27T17:12:24.000Z,97064.66
2022-12-27T17:15:01.763Z,97066.19
2022-12-27T17:17:30.313Z,97065.09
2022-12-27T17:20:03.408Z,97068.63
2022-12-27T17:22:35.890Z,97080.13
2022-12-27T17:25:05.044Z,97073.88
2022-12-27T17:27:57.997Z,97069.66
2022-12-27T17:30:33.479Z,97077.97
2022-12-27T17:33:40.060Z,97080.03
2022-12-27T17:36:35.713Z,97069.13
2022-12-27T17:39:19.601Z,97070.03
2022-12-27T17:42:16.584Z,97063.56
2022-12-27T17:44:58.362Z,97072.81
2022-12-27T17:47:38.241Z,97071.03
2022-12-27T17:50:13.563Z,97093.81
2022-12-27T17:53:04.522Z,97089.41
2022-12-27T17:55:51.536Z,97081.91
2022-12-27T17:58:19.523Z,97082.63
2022-12-27T18:00:56.291Z,97085.94
2022-12-27T18:03:27.474Z,97074.81
2022-12-27T18:05:55.668Z,97083.09
2022-12-27T18:08:28.231Z,97083.78
2022-12-27T18:10:58.335Z,97085.50
2022-12-27T18:13:28.742Z,97081.06
2022-12-27T18:15:58.160Z,97077.09
2022-12-27T18:18:30.326Z,97091.63
2022-12-27T18:23:16.837Z,97090.50
2022-12-27T18:26:07.845Z,97098.31
2022-12-27T18:28:39.381Z,97107.25
2022-12-27T18:31:13.190Z,97096.59
2022-12-27T18:33:45.366Z,97099.97
2022-12-27T18:36:21.402Z,97108.25
2022-12-27T18:38:56.879Z,97106.44
2022-12-27T18:41:25.738Z,97103.16
2022-12-27T18:44:00.625Z,97113.28
2022-12-27T18:46:31.984Z,97110.66
2022-12-27T18:49:00.893Z,97112.72
2022-12-27T18:51:34.156Z,97119.44
2022-12-27T18:54:03.941Z,97118.88
2022-12-27T18:56:34.095Z,97110.69
2022-12-27T18:59:19.617Z,97116.59
2022-12-27T19:01:49.346Z,97121.38
2022-12-27T19:04:21.909Z,97125.81
2022-12-27T19:06:55.485Z,97134.66
2022-12-27T19:09:28.347Z,97129.88
2022-12-27T19:11:58.750Z,97135.91
2022-12-27T19:14:30.913Z,97132.28
2022-12-27T19:17:06.969Z,97134.22
2022-12-27T19:19:38.726Z,97133.41
2022-12-27T19:22:34.500Z,97137.03
2022-12-27T19:25:07.012Z,97141.13
2022-12-27T19:27:35.026Z,97142.03
2022-12-27T19:30:03.064Z,97144.75
2022-12-27T19:32:33.949Z,97142.25
2022-12-27T19:35:04.380Z,97143.16
2022-12-27T19:37:35.121Z,97139.97
2022-12-27T19:40:05.740Z,97130.53
2022-12-27T19:42:35.243Z,97129.53
2022-12-27T19:45:03.517Z,97128.72
2022-12-27T19:47:32.307Z,97125.31
2022-12-27T19:50:00.291Z,97133.16
2022-12-27T19:52:28.833Z,97133.38
2022-12-27T19:55:02.911Z,97129.06
2022-12-27T19:57:32.272Z,97131.22
2022-12-27T20:00:00.363Z,97128.97
2022-12-27T20:02:29.752Z,97131.13
2022-12-27T20:04:57.905Z,97126.81
2022-12-27T20:07:26.988Z,97130.44
2022-12-27T20:09:55.000Z,97128.16
2022-12-27T20:12:23.072Z,97119.06
2022-12-27T20:14:53.643Z,97118.38
2022-12-27T20:17:21.761Z,97125.97
2022-12-27T20:19:51.782Z,97128.44
2022-12-27T20:22:19.908Z,97123.31
2022-12-27T20:24:47.952Z,97118.09
2022-12-27T20:27:16.017Z,97112.88
2022-12-27T20:29:44.170Z,97113.78
2022-12-27T20:32:13.649Z,97110.59
2022-12-27T20:34:41.640Z,97114.66
2022-12-27T20:37:10.895Z,97110.31
2022-12-27T20:39:38.955Z,97117.19
2022-12-27T20:42:07.151Z,97105.25
2022-12-27T20:44:35.217Z,97106.16
2022-12-27T20:47:03.278Z,97097.19
2022-12-27T20:49:33.053Z,97096.59
2022-12-27T20:52:01.188Z,97095.88
2022-12-27T20:54:29.189Z,97103.56
2022-12-27T20:56:57.123Z,97097.63
2022-12-27T20:59:25.112Z,97103.88
2022-12-27T21:01:57.170Z,97104.09
2022-12-27T21:04:26.858Z,97105.81
2022-12-27T21:06:56.610Z,97095.88
2022-12-27T21:09:24.907Z,97096.03
2022-12-27T21:11:53.870Z,97089.78
2022-12-27T21:14:22.097Z,97080.81
2022-12-27T21:16:50.497Z,97083.94
2022-12-27T21:19:18.993Z,97088.13
2022-12-27T21:21:47.026Z,97084.00
2022-12-27T21:24:16.442Z,97090.28
2022-12-27T21:26:44.456Z,97088.44
2022-12-27T21:29:14.535Z,97089.38
2022-12-27T21:31:42.567Z,97088.66
2022-12-27T21:34:10.590Z,97088.28
2022-12-27T21:36:39.479Z,97094.72
2022-12-27T21:39:08.699Z,97088.50
2022-12-27T21:41:39.446Z,97088.00
2022-12-27T21:44:08.376Z,97086.06
2022-12-27T21:46:38.696Z,97086.72
2022-12-27T21:49:08.525Z,97079.66
2022-12-27T21:51:38.061Z,97078.84
2022-12-27T21:54:06.775Z,97074.72
2022-12-27T21:56:35.406Z,97071.97
2022-12-27T21:59:10.911Z,97074.00
2022-12-27T22:01:51.562Z,97074.66
2022-12-27T22:04:21.591Z,97077.63
2022-12-27T22:06:49.796Z,97081.16
2022-12-27T22:09:19.409Z,97076.47
2022-12-27T22:11:48.039Z,97079.81
2022-12-27T22:14:20.691Z,97079.75
2022-12-27T22:16:53.036Z,97076.28
2022-12-27T22:19:21.081Z,97081.19
2022-12-27T22:21:49.219Z,97085.09
2022-12-27T22:24:19.862Z,97083.63
2022-12-27T22:26:50.200Z,97079.16
2022-12-27T22:29:21.683Z,97088.22
2022-12-27T22:31:49.733Z,97096.31
2022-12-27T22:34:17.711Z,97099.88
2022-12-27T22:36:45.817Z,97110.22
2022-12-27T22:39:14.094Z,97116.22
2022-12-27T22:41:42.203Z,97120.28
2022-12-27T22:44:12.770Z,97112.31
2022-12-27T22:47:25.248Z,97111.97
2022-12-27T22:49:31.234Z,97121.59
2022-12-27T22:51:59.178Z,97123.03
2022-12-27T22:55:04.581Z,97113.28
2022-12-27T22:57:15.332Z,97115.88
2022-12-27T22:59:43.523Z,97114.06
2022-12-27T23:02:13.021Z,97114.88
2022-12-27T23:04:41.186Z,97111.31
2022-12-27T23:07:09.294Z,97102.59
2022-12-27T23:09:42.883Z,97087.41
2022-12-27T23:12:11.778Z,97082.63
2022-12-27T23:14:40.028Z,97094.28
2022-12-27T23:17:08.183Z,97095.06
2022-12-27T23:19:37.656Z,97095.06
2022-12-27T23:22:05.779Z,97101.88
2022-12-27T23:24:34.199Z,97103.47
2022-12-27T23:27:03.427Z,97109.25
2022-12-27T23:29:31.444Z,97111.88
2022-12-27T23:31:59.441Z,97105.06
2022-12-27T23:34:28.909Z,97105.06
2022-12-27T23:36:58.774Z,97094.63
2022-12-27T23:39:27.195Z,97086.81
2022-12-27T23:41:55.444Z,97076.63
2022-12-27T23:44:34.210Z,97083.63
2022-12-27T23:47:03.993Z,97096.22
2022-12-27T23:49:32.209Z,97088.19
2022-12-27T23:52:01.562Z,97091.09
2022-12-27T23:54:29.690Z,97097.63
2022-12-27T23:56:57.904Z,97087.25
2022-12-27T23:59:26.028Z,97080.91
